Time;durP1;ratioP1;P1;durP2;ratioP2;P2;SDS_P1;SDS_P2;PMS_P1;PMS_P2;Temp;Humidity;BMP_temperature;BMP_pressure;BME280_temperature;BME280_humidity;BME280_pressure;Samples;Min_cycle;Max_cycle;Signal;HPM_P1;HPM_P2
2022/05/03 00:02:24;;;;;;;6.90;3.70;;;6.60;99.90;;;;;;5064645;28;20044;-83
2022/05/03 00:05:09;;;;;;;6.63;3.35;;;6.60;99.90;;;;;;5062820;28;20126;-83
2022/05/03 00:07:43;;;;;;;5.80;4.32;;;6.60;99.90;;;;;;5049429;28;20076;-83
2022/05/03 00:10:13;;;;;;;7.35;4.32;;;6.50;99.90;;;;;;5049636;28;20381;-83
2022/05/03 00:13:02;;;;;;;6.53;3.80;;;6.50;99.90;;;;;;5065798;28;20076;-83
2022/05/03 00:15:30;;;;;;;6.18;4.03;;;6.50;99.90;;;;;;5068137;28;20766;-83
2022/05/03 00:17:57;;;;;;;6.93;4.50;;;6.50;99.90;;;;;;5065678;28;20090;-83
2022/05/03 00:20:24;;;;;;;4.80;3.70;;;6.40;99.90;;;;;;5066243;28;20087;-83
2022/05/03 00:22:50;;;;;;;7.60;4.22;;;6.40;99.90;;;;;;5049453;28;20068;-83
2022/05/03 00:25:17;;;;;;;6.30;4.18;;;6.40;99.90;;;;;;5067520;28;20047;-83
2022/05/03 00:27:43;;;;;;;7.35;4.22;;;6.40;99.90;;;;;;5068004;28;20442;-83
2022/05/03 00:30:09;;;;;;;4.85;3.83;;;6.40;99.90;;;;;;5032245;28;20047;-83
2022/05/03 00:32:36;;;;;;;5.97;4.25;;;6.30;99.90;;;;;;5049592;28;20063;-83
2022/05/03 00:35:02;;;;;;;5.90;3.55;;;6.30;99.90;;;;;;5066963;28;20058;-83
2022/05/03 00:37:28;;;;;;;4.50;3.75;;;6.30;99.90;;;;;;5049162;28;20039;-83
2022/05/03 00:39:55;;;;;;;7.10;4.15;;;6.30;99.90;;;;;;5067268;28;20049;-82
2022/05/03 00:42:45;;;;;;;4.32;3.28;;;6.20;99.90;;;;;;5066824;28;20064;-83
2022/05/03 00:45:31;;;;;;;4.78;3.72;;;6.20;99.90;;;;;;5049662;28;20094;-83
2022/05/03 00:48:26;;;;;;;5.68;3.70;;;6.20;99.90;;;;;;5066548;28;20136;-83
2022/05/03 00:50:59;;;;;;;5.13;3.70;;;6.20;99.90;;;;;;5066363;28;20245;-83
2022/05/03 00:53:38;;;;;;;6.90;3.25;;;6.20;99.90;;;;;;5049634;28;20076;-83
2022/05/03 00:56:14;;;;;;;7.35;4.07;;;6.10;99.90;;;;;;5064870;28;20051;-84
2022/05/03 00:58:56;;;;;;;7.32;3.83;;;6.10;99.90;;;;;;5049384;28;20428;-83
2022/05/03 01:01:51;;;;;;;4.55;3.83;;;6.10;99.90;;;;;;5067111;28;20044;-83
2022/05/03 01:04:57;;;;;;;4.82;4.20;;;6.10;99.90;;;;;;5045019;28;20056;-83
2022/05/03 01:07:35;;;;;;;8.25;3.80;;;6.00;99.90;;;;;;5067174;28;20037;-83
2022/05/03 01:10:34;;;;;;;7.20;4.68;;;6.00;99.90;;;;;;5065138;28;20045;-83
2022/05/03 01:13:36;;;;;;;5.55;4.22;;;6.00;99.90;;;;;;5064530;28;20072;-83
2022/05/03 01:16:33;;;;;;;5.93;4.57;;;6.00;99.90;;;;;;5065589;28;20061;-83
2022/05/03 01:19:25;;;;;;;4.68;3.85;;;5.90;99.90;;;;;;5050224;28;20491;-83
2022/05/03 01:22:25;;;;;;;7.40;4.72;;;5.90;99.90;;;;;;5053325;28;20040;-83
2022/05/03 01:25:25;;;;;;;6.97;4.95;;;5.90;99.90;;;;;;5066128;28;20082;-83
2022/05/03 01:28:13;;;;;;;6.88;4.97;;;5.90;99.90;;;;;;5066773;28;20354;-83
2022/05/03 01:30:47;;;;;;;8.73;4.68;;;5.90;99.90;;;;;;5048788;28;20102;-83
2022/05/03 01:33:17;;;;;;;9.60;5.18;;;5.90;99.90;;;;;;5064443;28;20044;-83
2022/05/03 01:35:50;;;;;;;7.85;5.15;;;5.80;99.90;;;;;;5064449;28;20116;-83
2022/05/03 01:38:28;;;;;;;5.38;3.65;;;5.80;99.90;;;;;;5063586;28;20044;-83
2022/05/03 01:41:10;;;;;;;7.68;4.38;;;5.80;99.90;;;;;;5064989;28;20119;-83
2022/05/03 01:43:56;;;;;;;6.47;4.47;;;5.80;99.90;;;;;;5065572;28;20102;-83
2022/05/03 01:46:24;;;;;;;6.43;4.75;;;5.80;99.90;;;;;;5065680;28;20056;-83
2022/05/03 01:52:06;;;;;;;7.93;4.93;;;5.80;99.90;;;;;;5063509;28;20045;-83
2022/05/03 01:54:53;;;;;;;8.25;4.60;;;5.80;99.90;;;;;;5063977;28;20083;-83
2022/05/03 01:57:44;;;;;;;6.32;4.82;;;5.80;99.90;;;;;;5064710;28;20049;-83
2022/05/03 02:00:11;;;;;;;7.60;5.20;;;5.80;99.90;;;;;;5064768;28;20055;-83
2022/05/03 02:02:56;;;;;;;7.80;4.82;;;5.70;99.90;;;;;;5064493;28;20492;-83
2022/05/03 02:05:47;;;;;;;8.40;5.15;;;5.70;99.90;;;;;;5065343;28;20040;-83
2022/05/03 02:08:21;;;;;;;5.35;4.60;;;5.70;99.90;;;;;;5046564;28;20502;-83
2022/05/03 02:11:20;;;;;;;9.45;5.10;;;5.70;99.90;;;;;;5064419;28;20055;-83
2022/05/03 02:16:39;;;;;;;10.70;4.95;;;7.10;99.90;;;;;;5064870;28;20044;-83
2022/05/03 02:19:20;;;;;;;6.72;5.55;;;6.10;99.90;;;;;;5064162;28;20412;-83
2022/05/03 02:22:18;;;;;;;6.45;4.90;;;6.80;99.90;;;;;;5064697;28;20040;-83
2022/05/03 02:25:24;;;;;;;5.70;5.05;;;7.00;99.90;;;;;;5064023;28;20156;-83
2022/05/03 02:28:00;;;;;;;6.97;4.80;;;5.80;99.90;;;;;;5036819;28;20096;-83
2022/05/03 02:30:27;;;;;;;6.05;5.10;;;5.80;99.90;;;;;;5064566;28;20099;-83
2022/05/03 02:32:56;;;;;;;6.78;5.22;;;5.90;99.90;;;;;;5065010;28;20099;-83
2022/05/03 02:35:24;;;;;;;8.35;5.20;;;7.10;99.90;;;;;;5065072;28;20056;-83
2022/05/03 02:37:57;;;;;;;8.90;7.40;;;7.20;99.90;;;;;;5064416;28;20575;-83
2022/05/03 02:40:27;;;;;;;8.73;6.57;;;7.00;99.90;;;;;;5065521;28;20086;-83
2022/05/03 02:42:56;;;;;;;8.48;7.15;;;6.30;99.90;;;;;;5062407;28;20048;-83
2022/05/03 02:45:22;;;;;;;10.40;7.38;;;7.20;99.90;;;;;;5064043;28;20040;-83
2022/05/03 02:47:50;;;;;;;9.95;6.95;;;6.50;99.90;;;;;;5065014;28;20044;-83
2022/05/03 02:50:24;;;;;;;14.55;9.57;;;7.20;99.90;;;;;;5062531;28;20102;-83
2022/05/03 02:52:57;;;;;;;16.50;9.55;;;8.00;99.90;;;;;;5047448;28;20057;-83
2022/05/03 02:55:49;;;;;;;13.05;10.00;;;6.80;99.90;;;;;;5062652;28;20041;-83
2022/05/03 02:58:41;;;;;;;15.55;11.07;;;7.00;99.90;;;;;;5065184;28;20048;-83
2022/05/03 03:04:47;;;;;;;20.10;11.50;;;7.20;99.90;;;;;;5061918;28;20052;-83
2022/05/03 03:07:17;;;;;;;18.40;11.90;;;7.30;99.90;;;;;;5064623;28;20040;-83
2022/05/03 03:10:05;;;;;;;14.93;11.00;;;8.20;99.90;;;;;;5063265;28;20076;-83
2022/05/03 03:13:09;;;;;;;16.10;10.50;;;7.40;99.90;;;;;;5064052;28;20087;-83
2022/05/03 03:15:39;;;;;;;14.15;11.43;;;7.50;99.90;;;;;;5064031;28;20413;-83
2022/05/03 03:18:12;;;;;;;16.83;11.38;;;8.40;99.90;;;;;;5063127;28;20060;-83
2022/05/03 03:20:44;;;;;;;16.75;11.80;;;7.60;99.90;;;;;;5063862;28;20047;-83
2022/05/03 03:23:15;;;;;;;15.93;11.63;;;8.50;99.90;;;;;;5065307;28;20438;-83
2022/05/03 03:25:43;;;;;;;14.40;10.75;;;9.00;99.90;;;;;;5064001;28;20445;-83
2022/05/03 03:28:12;;;;;;;19.17;11.07;;;9.00;99.90;;;;;;5064649;28;20052;-83
2022/05/03 03:30:40;;;;;;;16.90;12.45;;;7.80;99.90;;;;;;5063219;28;20045;-83
2022/05/03 03:33:07;;;;;;;19.13;11.55;;;9.10;99.90;;;;;;5063841;28;20080;-82
2022/05/03 03:35:34;;;;;;;17.75;12.20;;;8.70;99.90;;;;;;5064721;28;20181;-83
2022/05/03 03:38:01;;;;;;;17.27;12.70;;;7.90;99.90;;;;;;5062094;28;20625;-82
2022/05/03 03:40:27;;;;;;;20.77;13.40;;;9.10;99.90;;;;;;5067198;28;20120;-83
2022/05/03 03:42:53;;;;;;;18.88;13.70;;;9.30;99.90;;;;;;5066368;28;20150;-82
2022/05/03 03:45:20;;;;;;;19.80;12.88;;;9.00;99.90;;;;;;5067315;28;20054;-83
2022/05/03 03:47:47;;;;;;;20.25;13.68;;;8.10;99.90;;;;;;5068503;28;20111;-82
2022/05/03 03:50:14;;;;;;;21.30;13.55;;;8.50;99.90;;;;;;5067342;28;20044;-82
2022/05/03 03:52:42;;;;;;;21.33;13.88;;;9.10;99.90;;;;;;5068266;28;20055;-83
2022/05/03 03:55:09;;;;;;;19.77;13.52;;;8.70;99.90;;;;;;5067560;28;20899;-82
2022/05/03 03:57:35;;;;;;;19.65;13.20;;;8.30;99.90;;;;;;5067307;28;20149;-82
2022/05/03 04:00:03;;;;;;;20.23;12.93;;;9.40;99.90;;;;;;5049181;28;20124;-82
2022/05/03 04:02:29;;;;;;;18.02;13.70;;;8.40;99.90;;;;;;5066670;28;20149;-83
2022/05/03 04:04:56;;;;;;;16.73;12.00;;;8.40;99.90;;;;;;5067555;28;20080;-83
2022/05/03 04:07:22;;;;;;;20.25;12.40;;;9.30;99.90;;;;;;5067288;28;20045;-83
2022/05/03 04:09:48;;;;;;;23.40;13.98;;;8.40;99.90;;;;;;5068025;28;20059;-82
2022/05/03 04:12:14;;;;;;;17.50;12.45;;;8.40;99.90;;;;;;5066523;28;20480;-83
2022/05/03 04:14:41;;;;;;;18.92;13.65;;;8.50;99.90;;;;;;5067744;28;20040;-82
2022/05/03 04:17:07;;;;;;;23.15;14.00;;;8.50;99.90;;;;;;5065741;28;20041;-83
2022/05/03 04:19:35;;;;;;;20.65;13.98;;;9.70;99.90;;;;;;5067883;28;20036;-83
2022/05/03 04:22:12;;;;;;;19.67;14.02;;;8.50;99.90;;;;;;5066018;28;20087;-83
2022/05/03 04:24:40;;;;;;;19.52;14.30;;;8.50;99.90;;;;;;5065519;28;20135;-83
2022/05/03 04:27:06;;;;;;;18.15;13.07;;;8.50;99.90;;;;;;5066774;28;20072;-82
2022/05/03 04:29:32;;;;;;;21.25;13.48;;;8.60;99.90;;;;;;5065387;28;20091;-83
2022/05/03 04:31:58;;;;;;;22.00;13.77;;;8.60;99.90;;;;;;5065717;28;20044;-82
2022/05/03 04:34:23;;;;;;;20.65;13.48;;;8.60;99.90;;;;;;5066700;28;20047;-82
2022/05/03 04:36:49;;;;;;;16.98;12.13;;;9.40;99.90;;;;;;5067509;28;20051;-83
2022/05/03 04:39:15;;;;;;;21.95;14.40;;;9.10;99.90;;;;;;5066126;28;20090;-82
2022/05/03 04:41:40;;;;;;;20.65;14.27;;;8.60;99.90;;;;;;5066803;28;20040;-83
2022/05/03 04:44:06;;;;;;;22.20;13.68;;;9.20;99.90;;;;;;5067320;28;20197;-83
2022/05/03 04:46:32;;;;;;;20.98;13.90;;;8.70;99.90;;;;;;5065144;28;20036;-82
2022/05/03 04:48:57;;;;;;;17.77;13.35;;;10.00;99.90;;;;;;5067202;28;20125;-82
2022/05/03 04:51:25;;;;;;;19.77;13.57;;;8.70;99.90;;;;;;5065189;28;20168;-82
2022/05/03 04:53:51;;;;;;;19.48;13.15;;;9.50;99.90;;;;;;5067652;28;20393;-83
2022/05/03 04:56:25;;;;;;;20.08;14.10;;;8.80;99.90;;;;;;5067168;28;20462;-82
2022/05/03 04:58:55;;;;;;;24.55;14.50;;;8.80;99.90;;;;;;5066565;28;20044;-82
2022/05/03 05:01:21;;;;;;;28.63;16.52;;;10.10;99.90;;;;;;5067324;28;20044;-82
2022/05/03 05:03:47;;;;;;;19.58;12.55;;;10.10;99.90;;;;;;5065948;28;20045;-82
2022/05/03 05:06:13;;;;;;;25.52;14.82;;;10.10;99.90;;;;;;5067227;28;20106;-82
2022/05/03 05:08:43;;;;;;;27.00;15.32;;;8.90;99.90;;;;;;5066371;28;20087;-82
2022/05/03 05:11:09;;;;;;;26.08;17.85;;;10.00;99.90;;;;;;5048598;28;20102;-82
2022/05/03 05:13:36;;;;;;;22.02;16.55;;;10.10;99.90;;;;;;5065923;28;20036;-82
2022/05/03 05:16:03;;;;;;;26.60;16.95;;;9.90;99.90;;;;;;5064582;28;20051;-82
2022/05/03 05:18:29;;;;;;;27.40;17.52;;;9.00;99.90;;;;;;5065730;28;20120;-82
2022/05/03 05:20:55;;;;;;;29.60;16.48;;;9.10;99.90;;;;;;5065329;28;20123;-82
2022/05/03 05:23:21;;;;;;;25.52;17.02;;;9.00;99.90;;;;;;5066917;28;20051;-82
2022/05/03 05:25:48;;;;;;;30.90;18.80;;;9.50;99.90;;;;;;5066733;28;20048;-83
2022/05/03 05:28:14;;;;;;;24.90;17.50;;;10.40;99.90;;;;;;5065905;28;20119;-83
2022/05/03 05:30:41;;;;;;;27.98;18.40;;;9.70;99.90;;;;;;5066445;28;20404;-83
2022/05/03 05:33:07;;;;;;;27.23;16.40;;;9.90;99.90;;;;;;5063912;28;20044;-83
2022/05/03 05:35:33;;;;;;;28.92;19.23;;;9.10;99.90;;;;;;5066661;28;20040;-83
2022/05/03 05:37:58;;;;;;;25.30;16.92;;;9.10;99.90;;;;;;5065216;28;20575;-83
2022/05/03 05:40:24;;;;;;;31.60;18.60;;;10.10;99.90;;;;;;5066604;28;20048;-83
2022/05/03 05:42:50;;;;;;;26.13;17.35;;;9.20;99.90;;;;;;5066246;28;20041;-83
2022/05/03 05:45:17;;;;;;;27.02;17.17;;;9.90;99.90;;;;;;5064352;28;20063;-82
2022/05/03 05:47:43;;;;;;;24.20;16.90;;;9.10;99.90;;;;;;5065943;28;20527;-83
2022/05/03 05:50:09;;;;;;;28.85;18.38;;;9.10;99.90;;;;;;5065073;28;20088;-82
2022/05/03 05:55:19;;;;;;;32.10;16.77;;;10.40;99.90;;;;;;5064496;28;20049;-82
2022/05/03 05:57:45;;;;;;;28.55;17.20;;;9.20;99.90;;;;;;5064798;28;20052;-82
2022/05/03 06:00:11;;;;;;;23.70;16.40;;;9.70;99.90;;;;;;5065775;28;20088;-83
2022/05/03 06:02:39;;;;;;;26.65;17.25;;;9.30;99.90;;;;;;5063920;28;20056;-83
2022/05/03 06:05:08;;;;;;;26.13;16.58;;;10.00;99.90;;;;;;5048511;28;20040;-82
2022/05/03 06:07:34;;;;;;;23.65;16.10;;;9.40;99.90;;;;;;5063935;28;20377;-83
2022/05/03 06:09:59;;;;;;;25.48;13.52;;;10.20;99.90;;;;;;5048123;28;20047;-82
2022/05/03 06:12:25;;;;;;;19.52;13.77;;;10.50;99.90;;;;;;5065394;28;20495;-83
2022/05/03 06:14:52;;;;;;;16.33;11.45;;;9.80;99.90;;;;;;5065678;28;20040;-82
2022/05/03 06:17:18;;;;;;;24.95;10.43;;;9.40;99.90;;;;;;5065850;28;20129;-82
2022/05/03 06:19:44;;;;;;;21.45;8.75;;;10.70;99.90;;;;;;5065281;28;20067;-82
2022/05/03 06:22:10;;;;;;;9.77;5.57;;;9.40;99.90;;;;;;5065655;28;20052;-82
2022/05/03 06:24:38;;;;;;;16.30;4.05;;;10.40;99.90;;;;;;5064950;28;20388;-82
2022/05/03 06:27:04;;;;;;;13.98;3.15;;;10.20;99.90;;;;;;5064825;28;20063;-82
2022/05/03 06:29:32;;;;;;;16.02;3.20;;;9.50;99.90;;;;;;5047511;28;20044;-82
2022/05/03 06:31:59;;;;;;;16.75;3.92;;;9.50;99.90;;;;;;5065434;28;20466;-82
2022/05/03 06:34:25;;;;;;;17.80;3.05;;;9.90;99.90;;;;;;5065598;28;20047;-82
2022/05/03 06:36:51;;;;;;;14.15;2.75;;;9.60;99.90;;;;;;5064758;28;20044;-81
2022/05/03 06:39:17;;;;;;;11.82;2.22;;;10.30;99.90;;;;;;5065523;28;20568;-82
2022/05/03 06:41:42;;;;;;;8.60;2.78;;;9.40;99.90;;;;;;5065916;28;20430;-82
2022/05/03 06:44:08;;;;;;;11.63;2.85;;;9.30;99.90;;;;;;5063988;28;20640;-82
2022/05/03 06:46:34;;;;;;;7.97;2.63;;;9.30;99.90;;;;;;5064918;28;20051;-82
2022/05/03 06:48:59;;;;;;;10.38;2.65;;;9.30;99.90;;;;;;5065042;28;20049;-82
2022/05/03 06:51:26;;;;;;;8.00;2.90;;;10.60;99.90;;;;;;5046698;28;20067;-82
2022/05/03 06:53:52;;;;;;;7.78;2.47;;;9.40;99.90;;;;;;5062526;28;20064;-82
2022/05/03 06:56:18;;;;;;;13.48;3.10;;;10.10;99.90;;;;;;5064716;28;20040;-82
2022/05/03 06:58:45;;;;;;;8.10;2.63;;;10.10;99.90;;;;;;5064263;28;20082;-82
2022/05/03 07:01:13;;;;;;;20.23;3.08;;;9.50;99.90;;;;;;5065319;28;20047;-82
2022/05/03 07:03:40;;;;;;;13.02;2.95;;;9.50;99.90;;;;;;5064792;28;20080;-82
2022/05/03 07:06:06;;;;;;;13.43;3.63;;;10.80;99.90;;;;;;5064549;28;20040;-82
2022/05/03 07:08:32;;;;;;;6.80;3.08;;;9.40;99.90;;;;;;5063527;28;20108;-82
2022/05/03 07:10:59;;;;;;;15.02;3.78;;;10.80;99.90;;;;;;5063979;28;20041;-82
2022/05/03 07:13:25;;;;;;;16.40;2.95;;;9.40;99.90;;;;;;5063447;28;20098;-81
2022/05/03 07:15:55;;;;;;;10.90;3.38;;;10.50;99.90;;;;;;5061922;28;21119;-81
2022/05/03 07:23:51;;;;;;;17.25;4.13;;;10.50;99.90;;;;;;5063941;28;20456;-81
2022/05/03 07:26:18;;;;;;;21.52;4.25;;;9.70;99.90;;;;;;5064713;28;20076;-81
2022/05/03 07:28:44;;;;;;;18.45;3.67;;;10.20;99.90;;;;;;5062256;28;20048;-81
2022/05/03 07:31:10;;;;;;;13.85;3.00;;;10.50;99.90;;;;;;5064793;28;20051;-81
2022/05/03 07:33:36;;;;;;;21.42;3.88;;;10.60;99.90;;;;;;5064342;28;20392;-81
2022/05/03 07:36:03;;;;;;;18.98;4.45;;;10.00;99.90;;;;;;5046243;28;20190;-81
2022/05/03 07:38:29;;;;;;;16.77;3.30;;;10.10;99.90;;;;;;5064957;28;20123;-81
2022/05/03 07:40:56;;;;;;;9.80;2.60;;;11.40;99.90;;;;;;5062681;28;20128;-81
2022/05/03 07:43:22;;;;;;;10.20;3.15;;;11.40;99.90;;;;;;5063299;28;20206;-80
2022/05/03 07:45:48;;;;;;;11.70;2.28;;;10.20;99.90;;;;;;5063669;28;20108;-80
2022/05/03 07:48:14;;;;;;;15.23;2.17;;;10.20;99.90;;;;;;5046761;28;20170;-80
2022/05/03 07:50:40;;;;;;;17.55;3.28;;;11.20;99.90;;;;;;5064256;28;20127;-80
2022/05/03 07:53:06;;;;;;;9.93;2.47;;;11.30;99.90;;;;;;5064486;28;20049;-81
2022/05/03 07:55:32;;;;;;;17.60;2.83;;;10.20;99.90;;;;;;5064614;28;20044;-81
2022/05/03 07:57:57;;;;;;;11.45;2.60;;;10.30;99.90;;;;;;5062724;28;20047;-81
2022/05/03 08:00:23;;;;;;;11.93;2.42;;;10.30;99.90;;;;;;5063269;28;20209;-81
2022/05/03 08:02:49;;;;;;;12.98;2.85;;;10.30;99.90;;;;;;5062327;28;20503;-81
2022/05/03 08:05:16;;;;;;;14.18;3.50;;;10.90;99.90;;;;;;5064840;28;20039;-81
2022/05/03 08:07:42;;;;;;;13.98;2.35;;;10.80;99.90;;;;;;5063946;28;20123;-81
2022/05/03 08:10:08;;;;;;;7.20;2.15;;;10.50;99.90;;;;;;5062758;28;20456;-81
2022/05/03 08:12:35;;;;;;;12.30;2.60;;;10.60;99.90;;;;;;5063856;28;20045;-81
2022/05/03 08:15:02;;;;;;;11.65;2.38;;;11.10;99.90;;;;;;5063692;28;20071;-81
2022/05/03 08:17:28;;;;;;;13.75;3.58;;;10.80;99.90;;;;;;5064015;28;20064;-81
2022/05/03 08:19:54;;;;;;;15.30;2.72;;;12.00;99.90;;;;;;5045154;28;20055;-81
2022/05/03 08:22:21;;;;;;;9.85;2.38;;;10.80;99.90;;;;;;5064002;28;20052;-81
2022/05/03 08:24:46;;;;;;;14.73;3.20;;;10.80;99.90;;;;;;5064158;28;20029;-81
2022/05/03 08:27:12;;;;;;;14.57;3.15;;;10.80;99.90;;;;;;5065778;28;20137;-81
2022/05/03 08:29:38;;;;;;;15.32;2.00;;;11.50;99.90;;;;;;5066399;28;20055;-81
2022/05/03 08:32:04;;;;;;;13.80;2.30;;;10.90;99.90;;;;;;5067146;28;20229;-82
2022/05/03 08:34:30;;;;;;;11.13;1.98;;;11.20;99.90;;;;;;5067435;28;20041;-81
2022/05/03 08:42:24;;;;;;;11.45;1.77;;;11.00;99.90;;;;;;5066565;28;20546;-80
2022/05/03 08:44:50;;;;;;;12.73;2.05;;;11.00;99.90;;;;;;5065043;28;20048;-81
2022/05/03 08:47:18;;;;;;;13.48;2.65;;;11.00;99.90;;;;;;5067264;28;20041;-81
2022/05/03 08:49:49;;;;;;;13.35;2.65;;;12.10;99.90;;;;;;5066515;28;20120;-80
2022/05/03 08:52:17;;;;;;;8.93;1.65;;;11.00;99.90;;;;;;5067521;28;20132;-81
2022/05/03 08:54:43;;;;;;;12.15;2.17;;;12.00;99.90;;;;;;5066723;28;20037;-82
2022/05/03 08:57:08;;;;;;;13.50;2.30;;;11.20;99.90;;;;;;5065285;28;20154;-82
2022/05/03 08:59:36;;;;;;;10.75;2.28;;;11.30;99.90;;;;;;5066764;28;20049;-82
2022/05/03 09:02:02;;;;;;;18.30;2.83;;;12.30;99.90;;;;;;5065344;28;20048;-81
2022/05/03 09:04:28;;;;;;;13.25;3.08;;;11.40;99.90;;;;;;5066694;28;20586;-81
2022/05/03 09:06:53;;;;;;;10.55;1.90;;;11.50;99.90;;;;;;5064931;28;20058;-81
2022/05/03 09:09:21;;;;;;;13.57;2.20;;;11.50;99.90;;;;;;5032336;28;20407;-81
2022/05/03 09:11:49;;;;;;;11.68;2.08;;;11.60;99.90;;;;;;5032112;28;20139;-82
2022/05/03 09:14:39;;;;;;;9.75;2.28;;;11.80;99.90;;;;;;5067009;28;20412;-82
2022/05/03 09:17:06;;;;;;;10.20;1.88;;;11.60;99.90;;;;;;5065598;28;20105;-81
2022/05/03 09:19:32;;;;;;;4.93;1.23;;;12.20;99.90;;;;;;5066195;28;20044;-82
2022/05/03 09:25:02;;;;;;;5.65;1.30;;;12.40;99.90;;;;;;5064949;28;20143;-82
2022/05/03 09:27:28;;;;;;;6.20;1.33;;;12.40;99.90;;;;;;5066030;28;20056;-82
2022/05/03 09:30:08;;;;;;;9.13;1.35;;;12.50;99.90;;;;;;5066438;28;20128;-81
2022/05/03 09:32:44;;;;;;;8.95;1.60;;;12.70;99.90;;;;;;5065884;28;20113;-81
2022/05/03 09:35:35;;;;;;;4.07;1.00;;;12.90;99.90;;;;;;5066666;28;20082;-81
2022/05/03 09:38:03;;;;;;;6.82;1.33;;;13.10;99.90;;;;;;5065961;28;20489;-81
2022/05/03 09:40:35;;;;;;;6.68;1.83;;;13.70;99.90;;;;;;5065660;28;20472;-81
2022/05/03 09:43:01;;;;;;;6.07;1.37;;;13.60;99.90;;;;;;5066192;28;20519;-82
2022/05/03 09:45:27;;;;;;;9.80;1.30;;;12.30;99.90;;;;;;5065617;28;20070;-81
2022/05/03 09:47:56;;;;;;;10.10;1.20;;;13.30;99.90;;;;;;5065300;28;20465;-81
2022/05/03 09:50:42;;;;;;;6.22;1.27;;;14.00;99.90;;;;;;5065474;28;20056;-82
2022/05/03 09:53:09;;;;;;;3.83;1.30;;;13.80;99.90;;;;;;5065146;28;20086;-81
2022/05/03 09:55:37;;;;;;;4.82;1.20;;;14.00;99.90;;;;;;5064885;28;20127;-82
2022/05/03 09:58:09;;;;;;;4.53;1.15;;;14.00;99.90;;;;;;5065393;28;20110;-82
2022/05/03 10:00:37;;;;;;;5.05;0.98;;;14.10;99.90;;;;;;5066197;28;20048;-82
2022/05/03 10:03:06;;;;;;;3.17;0.80;;;14.40;99.90;;;;;;5065810;28;20055;-81
2022/05/03 10:05:34;;;;;;;5.15;1.30;;;14.30;99.90;;;;;;5064182;28;20052;-82
2022/05/03 10:08:00;;;;;;;10.43;0.90;;;15.50;99.90;;;;;;5065713;28;20508;-82
2022/05/03 10:10:27;;;;;;;6.18;1.30;;;14.80;99.90;;;;;;5063328;28;20063;-82
2022/05/03 10:12:56;;;;;;;6.50;1.17;;;14.50;99.90;;;;;;5064636;28;20098;-82
2022/05/03 10:21:24;;;;;;;8.65;1.00;;;14.80;99.90;;;;;;5065505;28;20052;-81
2022/05/03 10:24:11;;;;;;;5.53;1.23;;;14.70;99.90;;;;;;5064816;28;20474;-82
2022/05/03 10:27:01;;;;;;;9.48;1.25;;;14.70;97.80;;;;;;5063951;28;20045;-81
2022/05/03 10:29:28;;;;;;;10.85;1.50;;;14.10;97.70;;;;;;5065577;28;20079;-82
2022/05/03 10:32:06;;;;;;;5.78;0.88;;;15.10;99.90;;;;;;5062952;28;20086;-82
2022/05/03 10:35:03;;;;;;;6.20;0.93;;;14.70;99.00;;;;;;5065671;28;20098;-82
2022/05/03 10:37:29;;;;;;;4.05;1.10;;;14.60;96.20;;;;;;5063838;28;20055;-82
2022/05/03 10:39:57;;;;;;;7.68;1.00;;;15.40;99.90;;;;;;5065289;28;20040;-82
2022/05/03 10:42:28;;;;;;;4.80;0.80;;;14.60;99.60;;;;;;5065523;28;20051;-82
2022/05/03 10:45:03;;;;;;;6.13;1.20;;;14.60;99.40;;;;;;5063203;28;20048;-82
2022/05/03 10:47:49;;;;;;;4.32;0.80;;;14.70;98.30;;;;;;5064205;28;20040;-82
2022/05/03 10:50:19;;;;;;;3.75;1.10;;;14.90;95.50;;;;;;5064476;28;20115;-81
2022/05/03 10:52:59;;;;;;;5.72;1.05;;;15.10;90.50;;;;;;5064769;28;20146;-82
2022/05/03 10:55:40;;;;;;;3.58;0.95;;;15.10;93.30;;;;;;5064650;28;20109;-82
2022/05/03 10:58:25;;;;;;;4.95;1.10;;;15.10;94.30;;;;;;5064084;28;20550;-82
2022/05/03 11:01:06;;;;;;;3.35;1.00;;;15.20;90.80;;;;;;5065309;28;20181;-81
2022/05/03 11:03:48;;;;;;;6.45;1.20;;;15.20;93.50;;;;;;5065193;28;20044;-81
2022/05/03 11:06:21;;;;;;;3.72;0.93;;;15.20;94.10;;;;;;5062629;28;20087;-82
2022/05/03 11:09:09;;;;;;;5.18;1.00;;;15.30;91.20;;;;;;5064952;28;20102;-82
2022/05/03 11:11:39;;;;;;;4.32;0.82;;;15.50;91.50;;;;;;5064957;28;20123;-81
2022/05/03 11:14:24;;;;;;;4.28;0.73;;;15.20;92.90;;;;;;5046176;28;20048;-81
2022/05/03 11:17:03;;;;;;;3.80;0.90;;;15.40;91.30;;;;;;5063679;28;20053;-82
2022/05/03 11:19:30;;;;;;;6.68;1.00;;;15.20;89.40;;;;;;5064706;28;20157;-81
2022/05/03 11:21:58;;;;;;;6.60;1.00;;;14.20;91.80;;;;;;5065097;28;20071;-82
2022/05/03 11:24:29;;;;;;;7.40;0.98;;;15.00;91.90;;;;;;5063445;28;20050;-81
2022/05/03 11:27:03;;;;;;;5.63;1.08;;;15.10;91.90;;;;;;5064511;28;20045;-82
2022/05/03 11:29:31;;;;;;;3.90;0.73;;;15.40;90.90;;;;;;5064691;28;20045;-82
2022/05/03 11:31:59;;;;;;;4.47;0.80;;;16.00;91.30;;;;;;5063800;28;20094;-82
2022/05/03 11:34:26;;;;;;;5.45;1.02;;;15.70;90.10;;;;;;5063969;28;20140;-82
2022/05/03 11:36:52;;;;;;;4.53;0.95;;;15.80;89.50;;;;;;5063962;28;20138;-82
2022/05/03 11:39:19;;;;;;;2.45;0.60;;;16.40;88.00;;;;;;5064900;28;20072;-82
2022/05/03 11:41:46;;;;;;;4.35;1.30;;;15.50;87.40;;;;;;5062788;28;20036;-81
2022/05/03 11:44:12;;;;;;;2.95;1.10;;;15.60;87.90;;;;;;5063726;28;20090;-81
2022/05/03 11:46:39;;;;;;;3.33;1.10;;;15.70;87.90;;;;;;5064311;28;20080;-81
2022/05/03 11:49:06;;;;;;;9.00;1.10;;;15.40;87.30;;;;;;5062363;28;20044;-82
2022/05/03 11:57:11;;;;;;;6.20;1.30;;;15.70;84.00;;;;;;5063864;28;20553;-82
2022/05/03 11:59:41;;;;;;;4.60;0.90;;;15.80;84.30;;;;;;5046133;28;20052;-82
2022/05/03 12:02:17;;;;;;;4.43;1.15;;;15.90;79.60;;;;;;5066576;28;20048;-82
2022/05/03 12:05:04;;;;;;;4.40;0.80;;;16.10;78.60;;;;;;5068798;28;20056;-82
2022/05/03 12:07:49;;;;;;;2.13;1.17;;;16.30;71.60;;;;;;5068191;28;20056;-82
2022/05/03 12:10:19;;;;;;;1.92;0.63;;;16.40;69.70;;;;;;5065612;28;20043;-82
2022/05/03 12:13:03;;;;;;;3.70;0.60;;;16.50;71.70;;;;;;5066446;28;20044;-82
2022/05/03 12:15:29;;;;;;;1.17;0.63;;;16.70;75.60;;;;;;5067723;28;20040;-82
2022/05/03 12:17:59;;;;;;;6.03;0.73;;;16.80;73.00;;;;;;5066735;28;20044;-82
2022/05/03 12:20:26;;;;;;;6.72;1.13;;;16.60;71.20;;;;;;5066553;28;20040;-82
2022/05/03 12:23:13;;;;;;;6.72;2.13;;;16.50;73.00;;;;;;5065700;28;20044;-81
2022/05/03 12:25:43;;;;;;;6.90;1.10;;;16.50;68.10;;;;;;5066957;28;20503;-82
2022/05/03 12:28:09;;;;;;;4.07;0.90;;;17.30;73.50;;;;;;5067821;28;20050;-82
2022/05/03 12:30:35;;;;;;;12.38;1.55;;;16.20;73.20;;;;;;5067783;28;20045;-82
2022/05/03 12:33:07;;;;;;;3.88;1.00;;;16.30;74.20;;;;;;5067362;28;20049;-82
2022/05/03 12:35:37;;;;;;;3.30;0.73;;;16.50;71.10;;;;;;5065424;28;20511;-82
2022/05/03 12:38:15;;;;;;;7.25;1.17;;;16.80;71.80;;;;;;5049235;28;20048;-82
2022/05/03 12:40:48;;;;;;;3.30;0.95;;;17.00;67.00;;;;;;5067205;28;20032;-81
2022/05/03 12:43:18;;;;;;;3.75;1.35;;;17.10;66.40;;;;;;5066247;28;20277;-82
2022/05/03 12:45:57;;;;;;;6.15;1.10;;;17.10;67.60;;;;;;5067516;28;20036;-82
2022/05/03 12:48:23;;;;;;;3.35;0.88;;;17.00;64.40;;;;;;5066890;28;20472;-82
2022/05/03 12:50:49;;;;;;;5.03;0.95;;;16.80;67.60;;;;;;5066881;28;20088;-82
2022/05/03 12:53:15;;;;;;;5.35;1.30;;;16.70;68.50;;;;;;5066352;28;20053;-81
2022/05/03 12:55:41;;;;;;;3.67;1.15;;;16.90;68.20;;;;;;5067554;28;20624;-82
2022/05/03 12:58:22;;;;;;;4.25;0.75;;;16.60;67.30;;;;;;5066839;28;20062;-81
2022/05/03 13:00:57;;;;;;;6.30;0.95;;;16.50;67.30;;;;;;5065208;28;20044;-82
2022/05/03 13:03:24;;;;;;;2.58;0.70;;;16.40;65.10;;;;;;5065922;28;20066;-82
2022/05/03 13:05:50;;;;;;;3.50;0.60;;;16.60;67.90;;;;;;5066421;28;20040;-82
2022/05/03 13:08:17;;;;;;;8.43;1.80;;;16.70;66.90;;;;;;5066973;28;20045;-82
2022/05/03 13:10:43;;;;;;;5.07;0.90;;;17.00;66.40;;;;;;5065371;28;20052;-81
2022/05/03 13:13:10;;;;;;;7.40;0.88;;;17.10;64.90;;;;;;5067250;28;20135;-81
2022/05/03 13:15:36;;;;;;;5.90;0.93;;;17.40;64.50;;;;;;5068200;28;20549;-81
2022/05/03 13:18:01;;;;;;;5.43;1.05;;;17.60;62.80;;;;;;5067111;28;20137;-81
2022/05/03 13:20:27;;;;;;;2.60;0.75;;;17.50;62.60;;;;;;5065766;28;20044;-81
2022/05/03 13:22:54;;;;;;;3.97;0.77;;;17.50;62.50;;;;;;5048029;28;20121;-81
2022/05/03 13:25:21;;;;;;;6.45;1.00;;;17.30;61.60;;;;;;5067265;28;20033;-81
2022/05/03 13:27:47;;;;;;;5.18;0.95;;;17.20;61.70;;;;;;5066918;28;20041;-81
2022/05/03 13:30:13;;;;;;;4.05;1.13;;;17.30;62.00;;;;;;5065676;28;20048;-81
2022/05/03 13:32:39;;;;;;;5.78;1.25;;;17.50;61.00;;;;;;5065624;28;20492;-80
2022/05/03 13:35:06;;;;;;;7.57;1.73;;;17.50;60.00;;;;;;5066535;28;20086;-80
2022/05/03 13:40:28;;;;;;;5.45;1.35;;;17.50;60.40;;;;;;5066839;28;20048;-81
2022/05/03 13:42:55;;;;;;;6.82;1.67;;;17.30;61.10;;;;;;5066022;28;20102;-81
2022/05/03 13:45:21;;;;;;;8.82;1.17;;;17.00;60.50;;;;;;5065552;28;20048;-80
2022/05/03 13:47:47;;;;;;;4.00;0.95;;;16.70;60.50;;;;;;5066525;28;20045;-80